createdAt,value
2017-08-04T00:00:21.347Z,0
2017-08-04T00:01:31.835Z,0
2017-08-04T00:02:42.059Z,0
2017-08-04T00:03:52.958Z,0
2017-08-04T00:05:03.444Z,0
2017-08-04T00:06:13.603Z,0
2017-08-04T00:07:24.107Z,0
2017-08-04T00:08:34.604Z,0
2017-08-04T00:09:45.365Z,0
2017-08-04T00:10:55.569Z,0
2017-08-04T00:12:06.108Z,0
2017-08-04T00:13:16.581Z,0
2017-08-04T00:14:27.062Z,0
2017-08-04T00:15:38.091Z,0
2017-08-04T00:16:48.562Z,0
2017-08-04T00:17:59.030Z,0
2017-08-04T00:19:09.494Z,0
2017-08-04T00:20:19.508Z,0
2017-08-04T00:21:30.203Z,0
2017-08-04T00:22:40.691Z,0
2017-08-04T00:23:51.382Z,0
2017-08-04T00:25:01.877Z,0
2017-08-04T00:26:12.429Z,0
2017-08-04T00:27:23.260Z,0
2017-08-04T00:28:33.774Z,0
2017-08-04T00:29:44.238Z,0
2017-08-04T00:30:54.769Z,0
2017-08-04T00:32:05.226Z,0
2017-08-04T00:33:15.756Z,0
2017-08-04T00:34:25.757Z,0
2017-08-04T00:35:35.899Z,0
2017-08-04T00:36:46.603Z,0
2017-08-04T00:37:57.156Z,0
2017-08-04T00:39:07.898Z,0
2017-08-04T00:40:18.061Z,0
2017-08-04T00:41:28.523Z,0
2017-08-04T00:42:38.995Z,0
2017-08-04T00:43:49.446Z,0
2017-08-04T00:45:00.138Z,0
2017-08-04T00:46:10.645Z,0
2017-08-04T00:47:20.858Z,0
2017-08-04T00:48:31.339Z,0
2017-08-04T00:49:41.917Z,0
2017-08-04T00:50:52.344Z,0
2017-08-04T00:52:02.815Z,0
2017-08-04T00:53:13.325Z,0
2017-08-04T00:54:23.882Z,0
2017-08-04T00:55:34.387Z,0
2017-08-04T00:56:45.153Z,0
2017-08-04T00:57:55.640Z,0
2017-08-04T00:59:06.107Z,0
2017-08-04T01:00:16.124Z,0
2017-08-04T01:01:26.619Z,0
2017-08-04T01:02:38.365Z,0
2017-08-04T01:03:48.880Z,0
2017-08-04T01:04:59.350Z,0
2017-08-04T01:06:09.959Z,0
2017-08-04T01:07:20.505Z,0
2017-08-04T01:08:31.212Z,0
2017-08-04T01:09:41.691Z,0
2017-08-04T01:10:51.828Z,0
2017-08-04T01:12:02.310Z,0
2017-08-04T01:13:12.774Z,0
2017-08-04T01:14:23.486Z,0
2017-08-04T01:15:33.941Z,0
2017-08-04T01:16:44.402Z,0
2017-08-04T01:17:54.995Z,0
2017-08-04T01:19:05.522Z,0
2017-08-04T01:20:16.260Z,0
2017-08-04T01:21:26.772Z,0
2017-08-04T01:22:37.338Z,0
2017-08-04T01:23:47.784Z,0
2017-08-04T01:24:58.261Z,0
2017-08-04T01:26:08.975Z,0
2017-08-04T01:27:19.109Z,0
2017-08-04T01:28:29.585Z,0
2017-08-04T01:29:40.105Z,0
2017-08-04T01:30:50.397Z,0
2017-08-04T01:32:01.124Z,0
2017-08-04T01:33:11.616Z,0
2017-08-04T01:34:22.136Z,0
2017-08-04T01:35:32.286Z,0
2017-08-04T01:36:42.827Z,0
2017-08-04T01:37:53.282Z,0
2017-08-04T01:39:03.765Z,0
2017-08-04T01:40:14.236Z,0
2017-08-04T01:41:24.748Z,0
2017-08-04T01:42:35.206Z,0
2017-08-04T01:43:45.914Z,0
2017-08-04T01:44:56.412Z,0
2017-08-04T01:46:06.858Z,0
2017-08-04T01:47:17.342Z,0
2017-08-04T01:48:27.827Z,0
2017-08-04T01:49:38.686Z,0
2017-08-04T01:50:49.361Z,0
2017-08-04T01:51:59.820Z,0
2017-08-04T01:53:10.408Z,0
2017-08-04T01:54:20.881Z,0
2017-08-04T01:55:31.651Z,0
2017-08-04T01:56:42.222Z,0
2017-08-04T01:57:52.771Z,0
2017-08-04T01:59:03.244Z,0
2017-08-04T02:00:14.024Z,0
2017-08-04T02:01:24.774Z,0
2017-08-04T02:02:35.264Z,0
2017-08-04T02:03:45.832Z,0
2017-08-04T02:04:55.519Z,0
2017-08-04T02:06:05.997Z,0
2017-08-04T02:07:16.711Z,0
2017-08-04T02:08:27.222Z,0
2017-08-04T02:09:37.257Z,0
2017-08-04T02:10:47.839Z,0
2017-08-04T02:11:58.327Z,0
2017-08-04T02:13:09.062Z,0
2017-08-04T02:14:19.531Z,0
2017-08-04T02:15:30.007Z,0
2017-08-04T02:16:40.544Z,0
2017-08-04T02:17:50.996Z,0
2017-08-04T02:19:01.755Z,0
2017-08-04T02:20:12.265Z,0
2017-08-04T02:21:22.780Z,0
2017-08-04T02:22:33.337Z,0
2017-08-04T02:23:43.473Z,0
2017-08-04T02:24:54.319Z,0
2017-08-04T02:26:04.796Z,0
2017-08-04T02:27:15.249Z,0
2017-08-04T02:28:25.698Z,0
2017-08-04T02:29:36.182Z,0
2017-08-04T02:30:46.925Z,0
2017-08-04T02:31:57.485Z,0
2017-08-04T02:33:08.169Z,0
2017-08-04T02:34:18.621Z,0
2017-08-04T02:35:29.094Z,0
2017-08-04T02:36:39.554Z,0
2017-08-04T02:37:50.027Z,0
2017-08-04T02:39:00.542Z,0
2017-08-04T02:40:11.032Z,0
2017-08-04T02:41:21.504Z,0
2017-08-04T02:42:32.261Z,0
2017-08-04T02:43:42.738Z,0
2017-08-04T02:44:53.276Z,0
2017-08-04T02:46:03.753Z,0
2017-08-04T02:47:14.272Z,0
2017-08-04T02:48:25.005Z,0
2017-08-04T02:49:35.530Z,0
2017-08-04T02:50:46.031Z,0
2017-08-04T02:51:56.665Z,0
2017-08-04T02:53:07.189Z,0
2017-08-04T02:54:17.593Z,0
2017-08-04T02:55:28.079Z,0
2017-08-04T02:56:38.238Z,0
2017-08-04T02:57:48.739Z,0
2017-08-04T02:58:58.777Z,0
2017-08-04T03:00:09.522Z,0
2017-08-04T03:01:20.013Z,0
2017-08-04T03:02:30.510Z,0
2017-08-04T03:03:41.027Z,0
2017-08-04T03:04:51.508Z,0
2017-08-04T03:06:02.221Z,0
2017-08-04T03:07:12.818Z,0
2017-08-04T03:08:23.285Z,0
2017-08-04T03:09:33.463Z,0
2017-08-04T03:10:43.987Z,0
2017-08-04T03:11:54.717Z,0
2017-08-04T03:13:05.189Z,0
2017-08-04T03:14:15.668Z,0
2017-08-04T03:15:26.179Z,0
2017-08-04T03:16:36.668Z,0
2017-08-04T03:17:47.422Z,0
2017-08-04T03:18:57.583Z,0
2017-08-04T03:20:08.043Z,0
2017-08-04T03:21:18.603Z,0
2017-08-04T03:22:29.199Z,0
2017-08-04T03:23:39.942Z,0
2017-08-04T03:24:50.380Z,0
2017-08-04T03:26:00.847Z,0
2017-08-04T03:27:11.381Z,0
2017-08-04T03:28:21.887Z,0
2017-08-04T03:29:32.606Z,0
2017-08-04T03:30:43.173Z,5
2017-08-04T03:31:53.668Z,5
2017-08-04T03:33:04.136Z,5
2017-08-04T03:34:14.592Z,5
2017-08-04T03:35:25.299Z,5
2017-08-04T03:36:35.871Z,5
2017-08-04T03:37:46.340Z,5
2017-08-04T03:38:56.801Z,5
2017-08-04T03:40:07.323Z,5
2017-08-04T03:41:18.115Z,5
2017-08-04T03:42:28.807Z,5
2017-08-04T03:43:39.273Z,5
2017-08-04T03:44:49.741Z,5
2017-08-04T03:46:00.221Z,10
2017-08-04T03:47:10.937Z,10
2017-08-04T03:48:21.405Z,10
2017-08-04T03:49:31.858Z,10
2017-08-04T03:50:42.339Z,10
2017-08-04T03:51:52.814Z,10
2017-08-04T03:53:03.509Z,10
2017-08-04T03:54:13.652Z,10
2017-08-04T03:55:24.120Z,15
2017-08-04T03:56:34.788Z,15
2017-08-04T03:57:44.940Z,15
2017-08-04T03:58:55.679Z,15
2017-08-04T04:00:06.135Z,20
2017-08-04T04:01:16.695Z,20
2017-08-04T04:02:27.187Z,25
2017-08-04T04:03:37.721Z,25
2017-08-04T04:04:48.466Z,25
2017-08-04T04:05:58.641Z,30
2017-08-04T04:07:09.134Z,30
2017-08-04T04:08:19.744Z,30
2017-08-04T04:09:30.240Z,30
2017-08-04T04:10:40.993Z,35
2017-08-04T04:11:51.454Z,40
2017-08-04T04:13:01.647Z,40
2017-08-04T04:14:12.154Z,40
2017-08-04T04:15:22.655Z,45
2017-08-04T04:16:33.423Z,45
2017-08-04T04:17:43.987Z,45
2017-08-04T04:18:54.668Z,50
2017-08-04T04:20:05.288Z,50
2017-08-04T04:21:15.474Z,50
2017-08-04T04:22:26.222Z,55
2017-08-04T04:23:36.766Z,55
2017-08-04T04:24:47.217Z,60
2017-08-04T04:25:57.872Z,60
2017-08-04T04:27:08.031Z,60
2017-08-04T04:28:18.452Z,65
2017-08-04T04:29:29.092Z,65
2017-08-04T04:30:39.239Z,70
2017-08-04T04:31:49.716Z,75
2017-08-04T04:33:00.173Z,75
2017-08-04T04:34:10.893Z,75
2017-08-04T04:35:21.349Z,80
2017-08-04T04:36:31.807Z,80
2017-08-04T04:37:41.948Z,80
2017-08-04T04:38:52.458Z,85
2017-08-04T04:40:03.409Z,85
2017-08-04T04:41:13.860Z,90
2017-08-04T04:42:24.427Z,90
2017-08-04T04:43:35.163Z,95
2017-08-04T04:44:45.620Z,105
2017-08-04T04:45:56.423Z,110
2017-08-04T04:47:06.928Z,115
2017-08-04T04:48:17.380Z,115
2017-08-04T04:49:27.838Z,115
2017-08-04T04:50:38.314Z,115
2017-08-04T04:51:48.720Z,115
2017-08-04T04:52:59.215Z,120
2017-08-04T04:54:09.688Z,130
2017-08-04T04:55:20.209Z,135
2017-08-04T04:56:30.710Z,140
2017-08-04T04:57:41.554Z,145
2017-08-04T04:58:52.070Z,155
2017-08-04T05:00:02.764Z,160
2017-08-04T05:01:13.226Z,160
2017-08-04T05:02:23.745Z,160
2017-08-04T05:03:34.551Z,155
2017-08-04T05:04:45.274Z,145
2017-08-04T05:05:55.738Z,145
2017-08-04T05:07:06.195Z,150
2017-08-04T05:08:16.652Z,160
2017-08-04T05:09:27.396Z,155
2017-08-04T05:10:37.570Z,155
2017-08-04T05:11:47.736Z,160
2017-08-04T05:12:58.214Z,155
2017-08-04T05:14:08.663Z,150
2017-08-04T05:15:19.394Z,155
2017-08-04T05:16:29.909Z,155
2017-08-04T05:17:40.386Z,160
2017-08-04T05:18:50.920Z,165
2017-08-04T05:20:01.405Z,165
2017-08-04T05:21:12.154Z,170
2017-08-04T05:22:22.697Z,175
2017-08-04T05:23:33.205Z,180
2017-08-04T05:24:43.716Z,195
2017-08-04T05:25:54.265Z,210
2017-08-04T05:27:05.033Z,215
2017-08-04T05:28:15.672Z,225
2017-08-04T05:29:26.154Z,230
2017-08-04T05:30:36.677Z,210
2017-08-04T05:31:46.720Z,200
2017-08-04T05:32:57.478Z,190
2017-08-04T05:34:07.950Z,190
2017-08-04T05:35:18.654Z,195
2017-08-04T05:36:29.140Z,210
2017-08-04T05:37:39.625Z,230
2017-08-04T05:38:50.334Z,245
2017-08-04T05:40:00.887Z,270
2017-08-04T05:41:11.432Z,270
2017-08-04T05:42:21.925Z,265
2017-08-04T05:43:33.357Z,265
2017-08-04T05:44:46.086Z,265
2017-08-04T05:45:56.565Z,280
2017-08-04T05:47:06.597Z,290
2017-08-04T05:48:17.143Z,305
2017-08-04T05:49:27.615Z,320
2017-08-04T05:50:38.338Z,320
2017-08-04T05:51:48.867Z,315
2017-08-04T05:52:59.331Z,295
2017-08-04T05:54:09.863Z,295
2017-08-04T05:55:20.454Z,265
2017-08-04T05:56:31.270Z,260
2017-08-04T05:57:41.816Z,260
2017-08-04T05:58:52.371Z,260
2017-08-04T06:00:02.822Z,275
2017-08-04T06:01:13.293Z,295
2017-08-04T06:02:24.027Z,305
2017-08-04T06:03:34.470Z,300
2017-08-04T06:04:44.950Z,285
2017-08-04T06:05:55.441Z,290
2017-08-04T06:07:05.902Z,280
2017-08-04T06:08:16.626Z,270
2017-08-04T06:09:27.166Z,260
2017-08-04T06:10:37.679Z,260
2017-08-04T06:11:48.136Z,250
2017-08-04T06:12:58.626Z,235
2017-08-04T06:14:09.430Z,235
2017-08-04T06:15:19.937Z,225
2017-08-04T06:16:30.129Z,235
2017-08-04T06:17:40.670Z,245
2017-08-04T06:18:51.160Z,275
2017-08-04T06:20:02.199Z,285
2017-08-04T06:21:12.408Z,315
2017-08-04T06:22:22.941Z,350
2017-08-04T06:23:33.689Z,380
2017-08-04T06:24:44.214Z,370
2017-08-04T06:25:55.009Z,405
2017-08-04T06:27:05.494Z,425
2017-08-04T06:28:16.064Z,430
2017-08-04T06:29:26.654Z,420
2017-08-04T06:30:37.141Z,390
2017-08-04T06:31:47.858Z,365
2017-08-04T06:32:58.487Z,355
2017-08-04T06:34:09.057Z,335
2017-08-04T06:35:19.530Z,320
2017-08-04T06:36:29.998Z,320
2017-08-04T06:37:40.442Z,320
2017-08-04T06:38:50.946Z,320
2017-08-04T06:40:01.443Z,335
2017-08-04T06:41:12.012Z,355
2017-08-04T06:42:22.513Z,340
2017-08-04T06:43:33.258Z,320
2017-08-04T06:44:43.743Z,305
2017-08-04T06:45:54.323Z,305
2017-08-04T06:47:04.915Z,330
2017-08-04T06:48:15.623Z,375
2017-08-04T06:49:26.551Z,390
2017-08-04T06:50:37.050Z,380
2017-08-04T06:51:47.559Z,375
2017-08-04T06:52:58.077Z,370
2017-08-04T06:54:08.560Z,375
2017-08-04T06:55:19.480Z,370
2017-08-04T06:56:30.181Z,380
2017-08-04T06:57:40.671Z,385
2017-08-04T06:58:51.170Z,400
2017-08-04T07:00:01.669Z,415
2017-08-04T07:01:12.510Z,430
2017-08-04T07:02:22.990Z,445
2017-08-04T07:03:33.459Z,470
2017-08-04T07:04:43.935Z,505
2017-08-04T07:05:54.507Z,525
2017-08-04T07:07:05.254Z,530
2017-08-04T07:08:15.736Z,470
2017-08-04T07:09:26.248Z,465
2017-08-04T07:10:36.711Z,450
2017-08-04T07:11:47.210Z,465
2017-08-04T07:12:57.704Z,480
2017-08-04T07:14:08.292Z,485
2017-08-04T07:15:18.768Z,495
2017-08-04T07:16:29.248Z,490
2017-08-04T07:17:39.739Z,450
2017-08-04T07:18:50.652Z,455
2017-08-04T07:20:01.341Z,520
2017-08-04T07:21:11.819Z,575
2017-08-04T07:22:22.326Z,590
2017-08-04T07:23:32.815Z,625
2017-08-04T07:24:43.764Z,625
2017-08-04T07:25:54.467Z,640
2017-08-04T07:27:05.019Z,665
2017-08-04T07:28:15.768Z,650
2017-08-04T07:29:26.564Z,640
2017-08-04T07:30:37.278Z,645
2017-08-04T07:31:47.514Z,625
2017-08-04T07:32:58.184Z,600
2017-08-04T07:34:08.659Z,620
2017-08-04T07:35:19.134Z,645
2017-08-04T07:36:29.863Z,645
2017-08-04T07:37:40.335Z,645
2017-08-04T07:38:50.839Z,625
2017-08-04T07:40:01.357Z,620
2017-08-04T07:41:11.849Z,600
2017-08-04T07:42:22.601Z,585
2017-08-04T07:43:32.639Z,545
2017-08-04T07:44:43.291Z,540
2017-08-04T07:45:53.809Z,560
2017-08-04T07:47:04.292Z,560
2017-08-04T07:48:15.482Z,600
2017-08-04T07:49:25.969Z,620
2017-08-04T07:50:36.282Z,565
2017-08-04T07:51:46.857Z,600
2017-08-04T07:52:57.329Z,600
2017-08-04T07:54:08.105Z,580
2017-08-04T07:55:18.599Z,595
2017-08-04T07:56:29.101Z,655
2017-08-04T07:57:39.583Z,730
2017-08-04T07:58:50.269Z,865
2017-08-04T08:00:01.085Z,885
2017-08-04T08:01:12.550Z,765
2017-08-04T08:02:23.064Z,670
2017-08-04T08:03:33.768Z,680
2017-08-04T08:04:43.968Z,695
2017-08-04T08:05:54.887Z,690
2017-08-04T08:07:05.370Z,665
2017-08-04T08:08:15.840Z,780
2017-08-04T08:09:26.351Z,915
2017-08-04T08:10:36.951Z,965
2017-08-04T08:11:47.707Z,960
2017-08-04T08:12:58.200Z,865
2017-08-04T08:14:08.737Z,735
2017-08-04T08:15:19.384Z,710
2017-08-04T08:16:29.872Z,690
2017-08-04T08:17:40.884Z,720
2017-08-04T08:18:51.522Z,750
2017-08-04T08:20:02.020Z,800
2017-08-04T08:21:12.505Z,830
2017-08-04T08:22:22.994Z,870
2017-08-04T08:23:33.884Z,960
2017-08-04T08:24:44.346Z,925
2017-08-04T08:25:54.506Z,950
2017-08-04T08:27:05.217Z,970
2017-08-04T08:28:15.752Z,1010
2017-08-04T08:29:26.617Z,1020
2017-08-04T08:30:36.623Z,1040
2017-08-04T08:31:47.141Z,1030
2017-08-04T08:32:57.653Z,1020
2017-08-04T08:34:07.719Z,995
2017-08-04T08:35:18.181Z,975
2017-08-04T08:36:28.367Z,925
2017-08-04T08:37:38.908Z,920
2017-08-04T08:38:49.419Z,935
2017-08-04T08:39:59.920Z,1020
2017-08-04T08:41:10.750Z,1120
2017-08-04T08:42:21.303Z,1180
2017-08-04T08:43:31.772Z,1415
2017-08-04T08:44:42.263Z,1160
2017-08-04T08:45:52.744Z,1085
2017-08-04T08:47:03.652Z,1170
2017-08-04T08:48:13.801Z,1495
2017-08-04T08:49:24.293Z,1655
2017-08-04T08:50:34.793Z,1595
2017-08-04T08:51:45.332Z,1580
2017-08-04T08:52:55.809Z,1120
2017-08-04T08:54:06.355Z,1670
2017-08-04T08:55:16.858Z,3085
2017-08-04T08:56:27.369Z,1685
2017-08-04T08:57:37.893Z,2225
2017-08-04T08:58:48.768Z,1305
2017-08-04T08:59:59.256Z,1055
2017-08-04T09:01:09.795Z,2780
2017-08-04T09:02:20.287Z,2380
2017-08-04T09:03:30.758Z,1560
2017-08-04T09:04:41.508Z,2205
2017-08-04T09:05:52.150Z,1720
2017-08-04T09:07:02.670Z,2125
2017-08-04T09:08:13.155Z,2355
2017-08-04T09:09:23.685Z,2100
2017-08-04T09:10:34.451Z,2545
2017-08-04T09:11:44.642Z,2210
2017-08-04T09:12:55.156Z,2180
2017-08-04T09:14:05.687Z,1225
2017-08-04T09:15:16.206Z,1395
2017-08-04T09:16:26.975Z,1945
2017-08-04T09:17:37.435Z,1215
2017-08-04T09:18:47.958Z,1190
2017-08-04T09:19:58.486Z,1340
2017-08-04T09:21:09.098Z,1245
2017-08-04T09:22:19.850Z,1470
2017-08-04T09:23:30.056Z,2000
2017-08-04T09:24:40.695Z,1860
2017-08-04T09:25:51.248Z,1475
2017-08-04T09:27:01.765Z,1420
2017-08-04T09:28:12.649Z,1455
2017-08-04T09:29:23.140Z,1485
2017-08-04T09:30:33.653Z,1645
2017-08-04T09:31:44.339Z,1305
2017-08-04T09:32:54.578Z,835
2017-08-04T09:34:05.387Z,525
2017-08-04T09:35:15.882Z,480
2017-08-04T09:36:26.370Z,595
2017-08-04T09:37:36.973Z,395
2017-08-04T09:38:47.479Z,345
2017-08-04T09:39:58.302Z,505
2017-08-04T09:41:08.790Z,755
2017-08-04T09:42:19.261Z,2165
2017-08-04T09:43:29.836Z,2790
2017-08-04T09:44:40.350Z,2255
2017-08-04T09:45:50.765Z,1370
2017-08-04T09:47:00.948Z,1255
2017-08-04T09:48:11.467Z,1425
2017-08-04T09:49:21.973Z,2300
2017-08-04T09:50:32.451Z,1805
2017-08-04T09:51:43.199Z,755
2017-08-04T09:52:53.767Z,780
2017-08-04T09:54:04.459Z,2425
2017-08-04T09:55:14.624Z,3020
2017-08-04T09:56:25.286Z,2990
2017-08-04T09:57:35.713Z,2170
2017-08-04T09:58:46.298Z,3775
2017-08-04T09:59:56.926Z,3810
2017-08-04T10:01:07.452Z,3170
2017-08-04T10:02:17.983Z,2690
2017-08-04T10:03:28.835Z,2245
2017-08-04T10:04:39.361Z,1320
2017-08-04T10:05:49.942Z,1430
2017-08-04T10:07:00.434Z,1865
2017-08-04T10:08:10.923Z,1385
2017-08-04T10:09:21.661Z,3680
2017-08-04T10:10:32.158Z,2425
2017-08-04T10:11:42.645Z,950
2017-08-04T10:12:53.217Z,3275
2017-08-04T10:14:03.742Z,1370
2017-08-04T10:15:14.522Z,1560
2017-08-04T10:16:25.020Z,875
2017-08-04T10:17:35.544Z,840
2017-08-04T10:18:46.030Z,980
2017-08-04T10:19:56.824Z,2810
2017-08-04T10:21:07.633Z,2150
2017-08-04T10:22:18.112Z,1615
2017-08-04T10:23:28.841Z,2300
2017-08-04T10:24:39.032Z,2570
2017-08-04T10:25:49.578Z,1615
2017-08-04T10:27:00.362Z,2050
2017-08-04T10:28:10.862Z,1085
2017-08-04T10:29:21.448Z,995
2017-08-04T10:30:32.186Z,845
2017-08-04T10:31:42.676Z,1300
2017-08-04T10:32:53.440Z,580
2017-08-04T10:34:03.942Z,565
2017-08-04T10:35:14.456Z,815
2017-08-04T10:36:25.078Z,1240
2017-08-04T10:37:36.578Z,1085
2017-08-04T10:38:47.407Z,2055
2017-08-04T10:39:57.875Z,900
2017-08-04T10:41:08.401Z,770
2017-08-04T10:42:18.880Z,820
2017-08-04T10:43:29.366Z,3425
2017-08-04T10:44:40.157Z,4225
2017-08-04T10:45:50.727Z,4560
2017-08-04T10:47:01.315Z,4440
2017-08-04T10:48:11.540Z,1200
2017-08-04T10:49:22.056Z,1925
2017-08-04T10:50:32.816Z,1430
2017-08-04T10:51:43.345Z,1740
2017-08-04T10:52:53.649Z,2635
2017-08-04T10:54:04.221Z,2085
2017-08-04T10:55:14.712Z,1315
2017-08-04T10:56:25.471Z,2455
2017-08-04T10:57:36.261Z,1135
2017-08-04T10:58:46.947Z,880
2017-08-04T10:59:57.447Z,1880
2017-08-04T11:01:07.638Z,2175
2017-08-04T11:02:18.420Z,1965
2017-08-04T11:03:28.929Z,1840
2017-08-04T11:04:39.471Z,1440
2017-08-04T11:05:50.060Z,1355
2017-08-04T11:07:00.555Z,1280
2017-08-04T11:08:11.447Z,1445
2017-08-04T11:09:21.983Z,1465
2017-08-04T11:10:32.462Z,2100
2017-08-04T11:11:43.975Z,2350
2017-08-04T11:12:54.065Z,3615
2017-08-04T11:14:04.915Z,3225
2017-08-04T11:15:15.201Z,2235
2017-08-04T11:16:25.730Z,1085
2017-08-04T11:17:36.218Z,1300
2017-08-04T11:18:46.777Z,3295
2017-08-04T11:19:57.543Z,3335
2017-08-04T11:21:08.137Z,3490
2017-08-04T11:22:18.644Z,2940
2017-08-04T11:23:28.841Z,1575
2017-08-04T11:24:39.013Z,1315
2017-08-04T11:25:49.998Z,1115
2017-08-04T11:27:00.709Z,1015
2017-08-04T11:28:11.253Z,880
2017-08-04T11:29:21.765Z,870
2017-08-04T11:30:32.352Z,1855
2017-08-04T11:31:43.126Z,1625
2017-08-04T11:32:53.645Z,1350
2017-08-04T11:34:04.162Z,2160
2017-08-04T11:35:14.698Z,1320
2017-08-04T11:36:25.464Z,1295
2017-08-04T11:37:36.195Z,1765
2017-08-04T11:38:46.663Z,1515
2017-08-04T11:39:57.515Z,1035
2017-08-04T11:41:08.058Z,1860
2017-08-04T11:42:18.535Z,1115
2017-08-04T11:43:29.284Z,950
2017-08-04T11:44:39.327Z,915
2017-08-04T11:45:50.072Z,865
2017-08-04T11:47:00.551Z,635
2017-08-04T11:48:11.052Z,505
2017-08-04T11:49:22.146Z,495
2017-08-04T11:50:32.673Z,655
2017-08-04T11:51:43.202Z,1035
2017-08-04T11:52:53.514Z,1295
2017-08-04T11:54:04.034Z,1105
2017-08-04T11:55:14.870Z,1060
2017-08-04T11:56:25.578Z,1380
2017-08-04T11:57:36.130Z,1090
2017-08-04T11:58:46.624Z,1080
2017-08-04T11:59:57.153Z,1760
2017-08-04T12:01:07.582Z,2960
2017-08-04T12:02:18.274Z,1230
2017-08-04T12:03:28.483Z,3925
2017-08-04T12:04:38.983Z,1155
2017-08-04T12:05:49.488Z,1295
2017-08-04T12:07:00.256Z,3695
2017-08-04T12:08:10.748Z,3465
2017-08-04T12:09:21.265Z,3575
2017-08-04T12:10:31.543Z,3750
2017-08-04T12:11:42.271Z,3945
2017-08-04T12:12:53.028Z,3475
2017-08-04T12:14:03.526Z,3785
2017-08-04T12:15:14.012Z,3875
2017-08-04T12:16:24.602Z,3830
2017-08-04T12:17:35.157Z,3735
2017-08-04T12:18:45.928Z,3690
2017-08-04T12:19:56.474Z,3805
2017-08-04T12:21:07.010Z,3845
2017-08-04T12:22:17.612Z,3805
2017-08-04T12:23:28.090Z,3880
2017-08-04T12:24:38.857Z,3490
2017-08-04T12:25:49.406Z,3830
2017-08-04T12:27:00.029Z,3555
2017-08-04T12:28:10.136Z,3610
2017-08-04T12:29:20.604Z,3495
2017-08-04T12:30:31.358Z,3600
2017-08-04T12:31:41.932Z,1555
2017-08-04T12:32:52.499Z,895
2017-08-04T12:34:02.995Z,4015
2017-08-04T12:35:13.513Z,3970
2017-08-04T12:36:24.279Z,3785
2017-08-04T12:37:34.788Z,3665
2017-08-04T12:38:45.686Z,3420
2017-08-04T12:39:56.272Z,3555
2017-08-04T12:41:06.771Z,3730
2017-08-04T12:42:32.136Z,3925
2017-08-04T12:43:42.675Z,4045
2017-08-04T12:44:53.338Z,4125
2017-08-04T12:46:03.852Z,3245
2017-08-04T12:47:14.869Z,1445
2017-08-04T12:48:25.378Z,3185
2017-08-04T12:49:35.881Z,1980
2017-08-04T12:50:46.390Z,3445
2017-08-04T12:51:56.896Z,3700
2017-08-04T12:53:07.335Z,3695
2017-08-04T12:54:17.866Z,3775
2017-08-04T12:55:28.458Z,1195
2017-08-04T12:56:38.968Z,980
2017-08-04T12:57:49.468Z,3535
2017-08-04T12:59:00.281Z,1195
2017-08-04T13:00:10.780Z,975
2017-08-04T13:01:21.391Z,975
2017-08-04T13:02:31.947Z,3425
2017-08-04T13:03:42.477Z,3555
2017-08-04T13:04:53.230Z,1110
2017-08-04T13:06:03.758Z,1230
2017-08-04T13:07:14.334Z,3560
2017-08-04T13:08:24.841Z,3365
2017-08-04T13:09:35.088Z,3000
2017-08-04T13:10:45.843Z,2825
2017-08-04T13:11:56.360Z,3085
2017-08-04T13:13:07.018Z,3015
2017-08-04T13:14:17.567Z,3445
2017-08-04T13:15:28.118Z,3580
2017-08-04T13:16:38.893Z,1370
2017-08-04T13:17:49.500Z,830
2017-08-04T13:18:59.713Z,980
2017-08-04T13:20:10.325Z,1335
2017-08-04T13:21:20.831Z,1220
2017-08-04T13:22:31.626Z,3165
2017-08-04T13:23:42.126Z,3035
2017-08-04T13:24:52.222Z,1105
2017-08-04T13:26:02.856Z,2045
2017-08-04T13:27:13.364Z,815
2017-08-04T13:28:24.122Z,3900
2017-08-04T13:29:34.663Z,3765
2017-08-04T13:30:45.270Z,3885
2017-08-04T13:31:55.766Z,3815
2017-08-04T13:33:06.280Z,920
2017-08-04T13:34:17.051Z,1675
2017-08-04T13:35:27.609Z,3145
2017-08-04T13:36:38.144Z,1025
2017-08-04T13:37:48.364Z,605
2017-08-04T13:38:58.958Z,540
2017-08-04T13:40:09.739Z,750
2017-08-04T13:41:20.272Z,930
2017-08-04T13:42:30.471Z,1780
2017-08-04T13:43:41.038Z,550
2017-08-04T13:44:51.810Z,530
2017-08-04T13:46:02.261Z,600
2017-08-04T13:47:12.790Z,615
2017-08-04T13:48:23.382Z,575
2017-08-04T13:49:33.891Z,540
2017-08-04T13:50:44.457Z,560
2017-08-04T13:51:55.269Z,565
2017-08-04T13:53:05.999Z,610
2017-08-04T13:54:16.087Z,685
2017-08-04T13:55:26.635Z,875
2017-08-04T13:56:37.131Z,1100
2017-08-04T13:57:47.637Z,815
2017-08-04T13:58:58.197Z,640
2017-08-04T14:00:08.697Z,585
2017-08-04T14:01:19.230Z,590
2017-08-04T14:02:29.727Z,730
2017-08-04T14:03:40.511Z,640
2017-08-04T14:04:50.980Z,1025
2017-08-04T14:06:01.471Z,610
2017-08-04T14:07:11.982Z,465
2017-08-04T14:08:22.243Z,435
2017-08-04T14:09:32.957Z,385
2017-08-04T14:10:43.484Z,420
2017-08-04T14:11:53.664Z,440
2017-08-04T14:13:04.140Z,545
2017-08-04T14:14:14.625Z,985
2017-08-04T14:15:25.368Z,1285
2017-08-04T14:16:35.917Z,625
2017-08-04T14:17:46.412Z,520
2017-08-04T14:18:57.036Z,605
2017-08-04T14:20:07.557Z,670
2017-08-04T14:21:18.106Z,625
2017-08-04T14:22:28.338Z,565
2017-08-04T14:23:38.522Z,565
2017-08-04T14:24:49.027Z,565
2017-08-04T14:25:59.191Z,615
2017-08-04T14:27:09.957Z,600
2017-08-04T14:28:20.488Z,495
2017-08-04T14:29:30.997Z,490
2017-08-04T14:30:41.454Z,510
2017-08-04T14:31:52.049Z,1100
2017-08-04T14:33:02.784Z,745
2017-08-04T14:34:13.278Z,2275
2017-08-04T14:35:23.797Z,995
2017-08-04T14:36:34.359Z,2800
2017-08-04T14:37:44.556Z,3000
2017-08-04T14:38:55.075Z,2380
2017-08-04T14:40:05.574Z,1600
2017-08-04T14:41:16.127Z,420
2017-08-04T14:42:26.818Z,2265
2017-08-04T14:43:37.305Z,555
2017-08-04T14:44:47.791Z,550
2017-08-04T14:45:58.508Z,475
2017-08-04T14:47:09.014Z,395
2017-08-04T14:48:19.526Z,355
2017-08-04T14:49:30.076Z,430
2017-08-04T14:50:41.090Z,460
2017-08-04T14:51:51.740Z,410
2017-08-04T14:53:02.244Z,435
2017-08-04T14:54:12.789Z,460
2017-08-04T14:55:22.967Z,480
2017-08-04T14:56:33.752Z,520
2017-08-04T14:57:44.047Z,495
2017-08-04T14:58:54.552Z,385
2017-08-04T15:00:05.052Z,500
2017-08-04T15:01:15.523Z,420
2017-08-04T15:02:26.302Z,405
2017-08-04T15:03:36.777Z,540
2017-08-04T15:04:47.070Z,2200
2017-08-04T15:05:57.278Z,1905
2017-08-04T15:07:07.444Z,410
2017-08-04T15:08:17.919Z,385
2017-08-04T15:09:28.464Z,510
2017-08-04T15:10:39.120Z,530
2017-08-04T15:11:49.675Z,505
2017-08-04T15:13:00.327Z,565
2017-08-04T15:14:11.217Z,2260
2017-08-04T15:15:21.953Z,890
2017-08-04T15:16:32.761Z,395
2017-08-04T15:17:42.954Z,510
2017-08-04T15:18:53.477Z,1940
2017-08-04T15:20:04.215Z,2035
2017-08-04T15:21:14.730Z,2340
2017-08-04T15:22:25.206Z,470
2017-08-04T15:23:35.361Z,315
2017-08-04T15:24:46.166Z,370
2017-08-04T15:25:56.920Z,1665
2017-08-04T15:27:07.508Z,420
2017-08-04T15:28:18.145Z,335
2017-08-04T15:29:28.650Z,295
2017-08-04T15:30:39.363Z,310
2017-08-04T15:31:50.259Z,370
2017-08-04T15:33:00.511Z,425
2017-08-04T15:34:11.034Z,440
2017-08-04T15:35:21.818Z,445
2017-08-04T15:36:31.448Z,510
2017-08-04T15:37:42.502Z,625
2017-08-04T15:38:53.243Z,475
2017-08-04T15:40:03.793Z,385
2017-08-04T15:41:14.581Z,415
2017-08-04T15:42:25.231Z,395
2017-08-04T15:43:35.703Z,365
2017-08-04T15:44:46.187Z,325
2017-08-04T15:45:56.392Z,290
2017-08-04T15:47:06.908Z,280
2017-08-04T15:48:17.428Z,295
2017-08-04T15:49:27.760Z,325
2017-08-04T15:50:37.955Z,400
2017-08-04T15:51:48.469Z,410
2017-08-04T15:52:58.967Z,425
2017-08-04T15:54:09.485Z,415
2017-08-04T15:55:20.275Z,425
2017-08-04T15:56:30.792Z,350
2017-08-04T15:57:41.272Z,300
2017-08-04T15:58:52.078Z,330
2017-08-04T16:00:02.592Z,310
2017-08-04T16:01:13.291Z,405
2017-08-04T16:02:22.754Z,430
2017-08-04T16:03:32.953Z,440
2017-08-04T16:04:43.111Z,450
2017-08-04T16:05:53.587Z,385
2017-08-04T16:07:04.404Z,385
2017-08-04T16:08:14.976Z,305
2017-08-04T16:09:26.146Z,335
2017-08-04T16:10:36.657Z,280
2017-08-04T16:11:47.126Z,270
2017-08-04T16:12:57.890Z,270
2017-08-04T16:14:08.496Z,270
2017-08-04T16:15:18.983Z,325
2017-08-04T16:16:29.150Z,350
2017-08-04T16:17:39.653Z,290
2017-08-04T16:18:50.111Z,320